createdAt,value
2019-05-01T00:01:55.277Z,8.80
2019-05-01T00:04:37.278Z,7.37
2019-05-01T00:07:10.621Z,7.73
2019-05-01T00:09:39.674Z,8.30
2019-05-01T00:12:08.646Z,9.20
2019-05-01T00:14:37.409Z,8.93
2019-05-01T00:17:06.207Z,8.70
2019-05-01T00:19:34.901Z,8.10
2019-05-01T00:22:03.938Z,9.80
2019-05-01T00:24:32.653Z,9.57
2019-05-01T00:27:00.969Z,7.90
2019-05-01T00:29:29.358Z,10.40
2019-05-01T00:31:58.145Z,8.20
2019-05-01T00:34:26.849Z,9.70
2019-05-01T00:36:55.628Z,9.60
2019-05-01T00:39:24.593Z,9.00
2019-05-01T00:41:53.334Z,10.03
2019-05-01T00:44:22.019Z,9.30
2019-05-01T00:46:50.814Z,8.80
2019-05-01T00:49:19.141Z,8.90
2019-05-01T00:51:47.907Z,9.30
2019-05-01T00:54:16.623Z,10.07
2019-05-01T00:56:55.829Z,8.50
2019-05-01T00:59:46.435Z,8.40
2019-05-01T01:02:23.031Z,8.83
2019-05-01T01:04:51.990Z,9.17
2019-05-01T01:07:20.761Z,7.77
2019-05-01T01:09:49.078Z,9.23
2019-05-01T01:12:17.956Z,8.93
2019-05-01T01:14:46.975Z,9.63
2019-05-01T01:17:15.738Z,10.23
2019-05-01T01:19:44.429Z,9.93
2019-05-01T01:22:13.301Z,9.37
2019-05-01T01:24:41.999Z,9.20
2019-05-01T01:27:10.706Z,9.73
2019-05-01T01:29:39.017Z,9.40
2019-05-01T01:32:07.823Z,9.60
2019-05-01T01:34:36.534Z,9.37
2019-05-01T01:37:05.289Z,10.33
2019-05-01T01:39:34.088Z,9.20
2019-05-01T01:42:02.781Z,9.20
2019-05-01T01:44:50.623Z,9.27
2019-05-01T01:47:19.403Z,10.80
2019-05-01T01:49:48.194Z,9.57
2019-05-01T01:52:16.745Z,8.43
2019-05-01T01:54:45.553Z,9.70
2019-05-01T01:57:14.252Z,8.93
2019-05-01T01:59:43.044Z,10.87
2019-05-01T02:02:29.317Z,10.87
2019-05-01T02:05:10.162Z,9.50
2019-05-01T02:07:38.848Z,10.07
2019-05-01T02:10:07.654Z,9.70
2019-05-01T02:12:36.594Z,10.20
2019-05-01T02:15:05.341Z,8.70
2019-05-01T02:17:34.121Z,10.30
2019-05-01T02:20:02.909Z,9.73
2019-05-01T02:22:31.633Z,9.40
2019-05-01T02:25:00.389Z,10.30
2019-05-01T02:27:41.520Z,10.30
2019-05-01T02:30:12.083Z,10.37
2019-05-01T02:32:40.786Z,9.97
2019-05-01T02:35:09.507Z,10.13
2019-05-01T02:37:37.937Z,9.30
2019-05-01T02:40:29.686Z,10.70
2019-05-01T02:42:58.379Z,10.40
2019-05-01T02:45:27.078Z,10.93
2019-05-01T02:47:55.895Z,11.77
2019-05-01T02:50:24.605Z,9.97
2019-05-01T02:52:53.326Z,9.30
2019-05-01T02:55:36.552Z,10.50
2019-05-01T02:58:05.107Z,9.80
2019-05-01T03:00:33.826Z,9.20
2019-05-01T03:03:02.596Z,8.63
2019-05-01T03:05:31.304Z,11.40
2019-05-01T03:08:00.034Z,9.90
2019-05-01T03:10:28.745Z,9.20
2019-05-01T03:12:57.520Z,21.13
2019-05-01T03:15:26.216Z,26.27
2019-05-01T03:18:12.013Z,24.00
2019-05-01T03:20:55.346Z,23.30
2019-05-01T03:23:30.503Z,16.60
2019-05-01T03:25:59.305Z,13.60
2019-05-01T03:28:28.048Z,11.87
2019-05-01T03:30:56.944Z,11.80
2019-05-01T03:33:25.658Z,10.90
2019-05-01T03:35:54.425Z,10.50
2019-05-01T03:38:23.123Z,10.40
2019-05-01T03:40:51.500Z,9.37
2019-05-01T03:43:20.202Z,9.93
2019-05-01T03:45:48.935Z,8.93
2019-05-01T03:48:17.708Z,9.20
2019-05-01T03:50:47.499Z,9.80
2019-05-01T03:53:16.307Z,9.83
2019-05-01T03:55:45.036Z,9.60
2019-05-01T03:58:13.741Z,9.30
2019-05-01T04:01:04.268Z,6.70
2019-05-01T04:03:38.458Z,8.67
2019-05-01T04:06:07.379Z,9.20
2019-05-01T04:08:36.155Z,9.50
2019-05-01T04:11:04.937Z,9.60
2019-05-01T04:13:33.679Z,8.20
2019-05-01T04:16:02.479Z,8.13
2019-05-01T04:18:31.171Z,8.10
2019-05-01T04:21:00.064Z,8.53
2019-05-01T04:23:29.182Z,7.73
2019-05-01T04:25:57.490Z,9.73
2019-05-01T04:28:36.970Z,9.27
2019-05-01T04:31:13.301Z,8.90
2019-05-01T04:33:43.042Z,8.60
2019-05-01T04:36:17.460Z,9.60
2019-05-01T04:38:46.247Z,9.17
2019-05-01T04:41:14.944Z,8.57
2019-05-01T04:43:43.387Z,9.37
2019-05-01T04:46:12.069Z,9.30
2019-05-01T04:48:40.848Z,8.93
2019-05-01T04:51:09.542Z,8.70
2019-05-01T04:53:38.266Z,8.43
2019-05-01T04:56:07.033Z,8.30
2019-05-01T04:58:35.726Z,9.37
2019-05-01T05:01:04.515Z,8.93
2019-05-01T05:03:33.283Z,8.33
2019-05-01T05:06:01.658Z,9.90
2019-05-01T05:08:30.522Z,9.77
2019-05-01T05:11:00.743Z,9.50
2019-05-01T05:13:38.188Z,9.03
2019-05-01T05:16:17.254Z,10.20
2019-05-01T05:18:45.944Z,10.47
2019-05-01T05:21:14.636Z,9.90
2019-05-01T05:23:43.321Z,10.33
2019-05-01T05:26:12.046Z,9.97
2019-05-01T05:28:40.361Z,9.13
2019-05-01T05:31:09.695Z,9.90
2019-05-01T05:33:38.828Z,10.43
2019-05-01T05:36:07.794Z,10.77
2019-05-01T05:38:42.536Z,9.93
2019-05-01T05:41:11.253Z,10.70
2019-05-01T05:43:40.020Z,10.80
2019-05-01T05:46:08.737Z,9.40
2019-05-01T05:48:37.470Z,9.30
2019-05-01T05:51:23.410Z,9.57
2019-05-01T05:53:54.254Z,8.77
2019-05-01T05:56:26.788Z,10.00
2019-05-01T05:58:59.003Z,9.50
2019-05-01T06:01:52.702Z,9.37
2019-05-01T06:04:38.439Z,8.73
2019-05-01T06:07:11.819Z,7.67
2019-05-01T06:09:48.534Z,8.10
2019-05-01T06:12:23.395Z,7.90
2019-05-01T06:15:02.485Z,7.80
2019-05-01T06:17:49.822Z,7.83
2019-05-01T06:20:27.677Z,8.47
2019-05-01T06:23:24.793Z,7.40
2019-05-01T06:25:59.973Z,6.80
2019-05-01T06:28:26.319Z,6.70
2019-05-01T06:30:58.058Z,8.00
2019-05-01T06:33:26.779Z,6.30
2019-05-01T06:35:55.551Z,7.00
2019-05-01T06:38:24.298Z,6.50
2019-05-01T06:40:58.063Z,6.93
2019-05-01T06:43:33.862Z,5.80
2019-05-01T06:46:29.080Z,6.83
2019-05-01T06:49:06.910Z,7.07
2019-05-01T06:51:53.085Z,6.87
2019-05-01T06:54:20.929Z,5.53
2019-05-01T06:56:49.327Z,6.23
2019-05-01T06:59:18.226Z,6.70
2019-05-01T07:01:46.926Z,7.10
2019-05-01T07:04:15.733Z,7.00
2019-05-01T07:06:44.453Z,6.80
2019-05-01T07:09:27.061Z,6.40
2019-05-01T07:11:47.651Z,6.30
2019-05-01T07:14:16.573Z,6.40
2019-05-01T07:16:45.378Z,6.50
2019-05-01T07:19:14.056Z,6.47
2019-05-01T07:21:43.111Z,6.70
2019-05-01T07:24:12.097Z,7.93
2019-05-01T07:26:43.968Z,8.10
2019-05-01T07:29:15.222Z,7.70
2019-05-01T07:31:44.253Z,8.90
2019-05-01T07:34:16.662Z,8.90
2019-05-01T07:36:45.663Z,11.00
2019-05-01T07:39:14.665Z,13.93
2019-05-01T07:41:44.710Z,11.00
2019-05-01T07:44:23.822Z,11.77
2019-05-01T07:47:17.767Z,12.80
2019-05-01T07:49:53.065Z,10.70
2019-05-01T07:52:21.597Z,11.43
2019-05-01T07:54:50.534Z,11.30
2019-05-01T07:57:19.652Z,13.93
2019-05-01T07:59:48.259Z,12.10
2019-05-01T08:02:17.369Z,12.90
2019-05-01T08:04:46.405Z,11.87
2019-05-01T08:07:15.469Z,11.73
2019-05-01T08:09:45.791Z,11.30
2019-05-01T08:12:18.871Z,12.77
2019-05-01T08:14:47.737Z,11.70
2019-05-01T08:17:19.831Z,11.70
2019-05-01T08:20:16.953Z,12.10
2019-05-01T08:22:45.982Z,12.30
2019-05-01T08:25:14.389Z,12.10
2019-05-01T08:27:56.229Z,9.63
2019-05-01T08:30:52.708Z,9.43
2019-05-01T08:33:55.192Z,10.07
2019-05-01T08:36:24.303Z,9.70
2019-05-01T08:38:53.672Z,9.70
2019-05-01T08:41:26.877Z,8.90
2019-05-01T08:43:55.742Z,10.17
2019-05-01T08:46:50.983Z,8.90
2019-05-01T08:49:42.206Z,8.63
2019-05-01T08:52:13.656Z,9.83
2019-05-01T08:54:41.338Z,8.67
2019-05-01T08:57:10.587Z,8.10
2019-05-01T08:59:39.602Z,8.47
2019-05-01T09:02:09.867Z,8.67
2019-05-01T09:04:38.907Z,7.40
2019-05-01T09:07:07.959Z,8.73
2019-05-01T09:09:39.881Z,8.20
2019-05-01T09:12:11.925Z,8.20
2019-05-01T09:14:38.358Z,7.90
2019-05-01T09:17:06.971Z,7.33
2019-05-01T09:19:35.957Z,8.60
2019-05-01T09:22:05.332Z,8.03
2019-05-01T09:24:34.442Z,9.87
2019-05-01T09:27:14.161Z,8.70
2019-05-01T09:29:46.753Z,7.73
2019-05-01T09:32:18.726Z,8.70
2019-05-01T09:34:47.377Z,8.90
2019-05-01T09:37:16.462Z,7.10
2019-05-01T09:39:47.164Z,6.90
2019-05-01T09:42:22.709Z,8.00
2019-05-01T09:44:46.358Z,11.10
2019-05-01T09:47:15.611Z,8.50
2019-05-01T09:49:44.475Z,7.43
2019-05-01T09:52:26.310Z,7.20
2019-05-01T09:54:58.446Z,7.30
2019-05-01T09:57:27.165Z,7.27
2019-05-01T09:59:55.491Z,7.00
2019-05-01T10:02:24.446Z,7.67
2019-05-01T10:04:53.141Z,7.43
2019-05-01T10:07:23.882Z,7.27
2019-05-01T10:09:53.898Z,7.90
2019-05-01T10:12:22.818Z,7.27
2019-05-01T10:14:51.523Z,7.87
2019-05-01T10:17:20.235Z,6.77
2019-05-01T10:19:50.254Z,6.80
2019-05-01T10:22:18.720Z,6.23
2019-05-01T10:24:47.431Z,6.27
2019-05-01T10:27:19.319Z,6.17
2019-05-01T10:30:07.707Z,7.00
2019-05-01T10:32:40.537Z,5.30
2019-05-01T10:35:41.742Z,5.60
2019-05-01T10:38:04.726Z,4.83
2019-05-01T10:40:34.265Z,5.33
2019-05-01T10:43:02.913Z,6.83
2019-05-01T10:45:31.603Z,5.37
2019-05-01T10:47:59.897Z,4.70
2019-05-01T10:50:28.871Z,4.83
2019-05-01T10:52:57.591Z,5.37
2019-05-01T10:55:26.302Z,4.50
2019-05-01T10:57:55.006Z,4.53
2019-05-01T11:00:25.593Z,4.30
2019-05-01T11:02:54.423Z,5.23
2019-05-01T11:05:23.194Z,5.00
2019-05-01T11:07:52.002Z,4.50
2019-05-01T11:10:20.314Z,4.67
2019-05-01T11:12:49.311Z,5.23
2019-05-01T11:15:19.134Z,5.10
2019-05-01T11:17:47.834Z,5.37
2019-05-01T11:20:16.627Z,5.47
2019-05-01T11:22:45.321Z,5.00
2019-05-01T11:25:15.673Z,4.60
2019-05-01T11:27:44.380Z,4.50
2019-05-01T11:30:13.159Z,4.20
2019-05-01T11:33:00.621Z,4.40
2019-05-01T11:35:48.553Z,4.93
2019-05-01T11:38:45.487Z,5.40
2019-05-01T11:41:39.288Z,4.23
2019-05-01T11:44:08.146Z,4.27
2019-05-01T11:46:36.859Z,4.23
2019-05-01T11:49:05.591Z,4.20
2019-05-01T11:51:34.315Z,3.90
2019-05-01T11:54:03.127Z,4.13
2019-05-01T11:56:31.846Z,4.37
2019-05-01T11:59:00.610Z,3.57
2019-05-01T12:01:28.914Z,3.90
2019-05-01T12:03:57.646Z,3.40
2019-05-01T12:06:26.378Z,4.70
2019-05-01T12:08:55.093Z,3.60
2019-05-01T12:11:25.613Z,5.40
2019-05-01T12:13:54.297Z,3.80
2019-05-01T12:16:42.091Z,3.40
2019-05-01T12:19:10.879Z,4.60
2019-05-01T12:21:39.570Z,4.10
2019-05-01T12:24:08.326Z,3.67
2019-05-01T12:26:36.643Z,3.63
2019-05-01T12:29:05.344Z,4.03
2019-05-01T12:31:34.051Z,3.37
2019-05-01T12:34:02.853Z,5.17
2019-05-01T12:36:36.456Z,4.37
2019-05-01T12:39:02.007Z,4.43
2019-05-01T12:41:41.369Z,4.33
2019-05-01T12:44:10.093Z,3.50
2019-05-01T12:46:44.848Z,3.10
2019-05-01T12:49:15.813Z,4.67
2019-05-01T12:51:45.676Z,4.10
2019-05-01T12:54:24.823Z,4.50
2019-05-01T12:56:55.771Z,4.13
2019-05-01T12:59:24.459Z,3.60
2019-05-01T13:01:53.255Z,3.97
2019-05-01T13:04:21.987Z,3.63
2019-05-01T13:06:50.831Z,4.80
2019-05-01T13:09:19.723Z,4.60
2019-05-01T13:11:48.467Z,3.40
2019-05-01T13:14:17.249Z,3.40
2019-05-01T13:16:45.968Z,4.13
2019-05-01T13:19:14.761Z,4.40
2019-05-01T13:21:43.521Z,3.77
2019-05-01T13:24:11.880Z,3.70
2019-05-01T13:26:45.982Z,4.17
2019-05-01T13:29:37.667Z,3.30
2019-05-01T13:32:25.457Z,3.73
2019-05-01T13:34:54.170Z,3.77
2019-05-01T13:37:22.966Z,3.63
2019-05-01T13:39:51.659Z,4.00
2019-05-01T13:42:20.360Z,3.00
2019-05-01T13:44:49.153Z,3.50
2019-05-01T13:47:17.846Z,3.47
2019-05-01T13:49:46.178Z,3.70
2019-05-01T13:52:14.992Z,3.50
2019-05-01T13:54:43.970Z,3.33
2019-05-01T13:57:12.793Z,3.70
2019-05-01T13:59:44.691Z,3.73
2019-05-01T14:02:13.950Z,3.70
2019-05-01T14:04:43.040Z,3.50
2019-05-01T14:07:16.807Z,2.73
2019-05-01T14:09:42.370Z,2.97
2019-05-01T14:12:10.681Z,3.43
2019-05-01T14:14:41.506Z,3.30
2019-05-01T14:17:10.211Z,3.13
2019-05-01T14:19:40.672Z,3.10
2019-05-01T14:22:37.234Z,3.30
2019-05-01T14:25:07.193Z,3.00
2019-05-01T14:27:35.999Z,2.80
2019-05-01T14:30:05.613Z,2.90
2019-05-01T14:32:34.001Z,3.60
2019-05-01T14:35:02.728Z,3.00
2019-05-01T14:37:31.445Z,2.93
2019-05-01T14:40:00.249Z,2.80
2019-05-01T14:42:28.942Z,2.97
2019-05-01T14:44:57.710Z,3.40
2019-05-01T14:47:26.548Z,3.40
2019-05-01T14:49:55.307Z,3.60
2019-05-01T14:52:24.089Z,3.00
2019-05-01T14:54:52.410Z,2.83
2019-05-01T14:57:21.227Z,3.10
2019-05-01T14:59:49.976Z,3.33
2019-05-01T15:02:18.771Z,3.10
2019-05-01T15:04:47.465Z,2.83
2019-05-01T15:07:16.551Z,2.63
2019-05-01T15:09:45.299Z,2.77
2019-05-01T15:12:14.154Z,3.47
2019-05-01T15:15:07.654Z,3.30
2019-05-01T15:17:44.625Z,3.37
2019-05-01T15:20:13.376Z,3.77
2019-05-01T15:22:42.074Z,3.10
2019-05-01T15:25:11.061Z,2.80
2019-05-01T15:27:42.324Z,2.20
2019-05-01T15:30:29.010Z,2.83
2019-05-01T15:33:01.768Z,2.67
2019-05-01T15:35:33.737Z,3.57
2019-05-01T15:38:03.938Z,3.93
2019-05-01T15:40:52.472Z,3.33
2019-05-01T15:43:33.109Z,3.20
2019-05-01T15:46:03.454Z,3.17
2019-05-01T15:49:04.267Z,3.00
2019-05-01T15:51:36.951Z,3.50
2019-05-01T15:54:23.635Z,2.50
2019-05-01T15:56:52.539Z,2.80
2019-05-01T15:59:21.287Z,3.03
2019-05-01T16:01:50.079Z,3.40
2019-05-01T16:04:22.451Z,2.90
2019-05-01T16:06:50.851Z,3.67
2019-05-01T16:09:19.303Z,3.30
2019-05-01T16:12:12.862Z,3.40
2019-05-01T16:14:44.303Z,3.70
2019-05-01T16:17:13.074Z,3.40
2019-05-01T16:19:44.479Z,3.87
2019-05-01T16:22:16.766Z,3.80
2019-05-01T16:24:45.485Z,3.90
2019-05-01T16:27:14.355Z,4.13
2019-05-01T16:29:43.077Z,3.90
2019-05-01T16:32:11.450Z,3.63
2019-05-01T16:34:40.263Z,3.30
2019-05-01T16:37:08.990Z,3.20
2019-05-01T16:40:11.656Z,3.40
2019-05-01T16:42:43.338Z,4.30
2019-05-01T16:45:13.088Z,3.37
2019-05-01T16:47:41.855Z,3.30
2019-05-01T16:50:10.557Z,3.30
2019-05-01T16:52:39.460Z,3.20
2019-05-01T16:55:07.787Z,3.53
2019-05-01T16:57:36.545Z,3.20
2019-05-01T17:00:07.309Z,3.70
2019-05-01T17:02:57.615Z,3.70
2019-05-01T17:05:39.015Z,4.30
2019-05-01T17:08:35.907Z,3.53
2019-05-01T17:11:04.355Z,3.20
2019-05-01T17:13:33.396Z,3.40
2019-05-01T17:16:02.255Z,3.33
2019-05-01T17:18:32.336Z,3.97
2019-05-01T17:21:05.443Z,3.10
2019-05-01T17:23:34.136Z,3.40
2019-05-01T17:26:02.830Z,3.00
2019-05-01T17:28:32.770Z,3.50
2019-05-01T17:31:01.663Z,4.07
2019-05-01T17:33:30.641Z,3.70
2019-05-01T17:35:59.362Z,4.00
2019-05-01T17:38:28.330Z,3.00
2019-05-01T17:40:57.073Z,3.53
2019-05-01T17:43:25.772Z,3.33
2019-05-01T17:45:54.483Z,3.50
2019-05-01T17:48:23.252Z,3.33
2019-05-01T17:50:55.033Z,4.20
2019-05-01T17:53:22.111Z,4.30
2019-05-01T17:55:50.813Z,3.60
2019-05-01T17:58:19.590Z,3.47
2019-05-01T18:01:19.942Z,4.80
2019-05-01T18:04:06.106Z,5.20
2019-05-01T18:06:37.127Z,5.43
2019-05-01T18:09:12.944Z,6.00
2019-05-01T18:11:38.347Z,3.93
2019-05-01T18:14:06.710Z,3.20
2019-05-01T18:16:35.419Z,3.83
2019-05-01T18:19:04.806Z,3.43
2019-05-01T18:21:33.791Z,4.07
2019-05-01T18:24:28.086Z,4.17
2019-05-01T18:27:21.706Z,3.53
2019-05-01T18:29:55.923Z,4.63
2019-05-01T18:32:47.441Z,4.07
2019-05-01T18:35:15.874Z,3.97
2019-05-01T18:38:11.515Z,4.90
2019-05-01T18:40:48.075Z,4.40
2019-05-01T18:43:16.783Z,4.00
2019-05-01T18:45:48.833Z,4.60
2019-05-01T18:48:17.662Z,4.37
2019-05-01T18:50:49.508Z,3.50
2019-05-01T18:53:16.795Z,3.80
2019-05-01T18:55:45.490Z,4.07
2019-05-01T18:58:14.263Z,3.60
2019-05-01T19:00:43.771Z,4.50
2019-05-01T19:03:12.557Z,3.60
2019-05-01T19:05:43.240Z,4.10
2019-05-01T19:08:13.027Z,4.00
2019-05-01T19:10:42.840Z,3.63
2019-05-01T19:13:21.826Z,3.73
2019-05-01T19:15:51.861Z,3.80
2019-05-01T19:18:21.802Z,3.80
2019-05-01T19:20:59.291Z,3.93
2019-05-01T19:23:43.279Z,3.30
2019-05-01T19:26:13.771Z,3.30
2019-05-01T19:28:45.415Z,4.20
2019-05-01T19:31:34.034Z,4.30
2019-05-01T19:34:03.486Z,3.40
2019-05-01T19:36:40.266Z,4.10
2019-05-01T19:39:12.947Z,4.50
2019-05-01T19:41:56.089Z,4.27
2019-05-01T19:44:25.998Z,5.63
2019-05-01T19:46:56.908Z,5.13
2019-05-01T19:49:29.715Z,4.30
2019-05-01T19:52:00.603Z,5.07
2019-05-01T19:54:36.756Z,4.50
2019-05-01T19:57:14.242Z,4.70
2019-05-01T19:59:43.775Z,4.97
2019-05-01T20:02:17.190Z,5.10
2019-05-01T20:04:49.860Z,4.93
2019-05-01T20:07:17.925Z,4.70
2019-05-01T20:09:56.657Z,4.80
2019-05-01T20:12:20.909Z,4.20
2019-05-01T20:14:53.624Z,5.40
2019-05-01T20:17:46.701Z,4.97
2019-05-01T20:20:07.736Z,5.40
2019-05-01T20:22:37.508Z,4.63
2019-05-01T20:25:21.338Z,4.67
2019-05-01T20:27:53.207Z,4.63
2019-05-01T20:30:27.227Z,5.83
2019-05-01T20:33:17.513Z,5.50
2019-05-01T20:38:38.096Z,4.57
2019-05-01T20:41:10.220Z,4.50
2019-05-01T20:43:43.410Z,4.20
2019-05-01T20:46:12.073Z,5.30
2019-05-01T20:48:44.032Z,5.30
2019-05-01T20:51:12.781Z,4.20
2019-05-01T20:53:44.155Z,4.73
2019-05-01T20:56:19.545Z,4.90
2019-05-01T20:58:49.593Z,4.50
2019-05-01T21:01:19.438Z,4.80
2019-05-01T21:04:02.913Z,4.60
2019-05-01T21:06:51.211Z,4.27
2019-05-01T21:09:25.068Z,4.33
2019-05-01T21:12:05.387Z,5.07
2019-05-01T21:14:32.977Z,4.60
2019-05-01T21:17:02.458Z,4.93
2019-05-01T21:19:33.555Z,5.13
2019-05-01T21:22:04.065Z,4.80
2019-05-01T21:24:34.083Z,4.43
2019-05-01T21:27:10.014Z,3.60
2019-05-01T21:29:39.031Z,3.63
2019-05-01T21:32:08.804Z,4.23
2019-05-01T21:34:38.488Z,5.10
2019-05-01T21:37:10.488Z,4.73
2019-05-01T21:39:43.649Z,4.27
2019-05-01T21:42:16.106Z,5.43
2019-05-01T21:44:46.233Z,4.93
2019-05-01T21:47:18.832Z,5.13
2019-05-01T21:49:48.661Z,5.37
2019-05-01T21:52:22.405Z,5.10
2019-05-01T21:54:50.199Z,4.90
2019-05-01T21:57:19.800Z,4.60
2019-05-01T22:00:15.511Z,5.17
2019-05-01T22:02:54.173Z,4.40
2019-05-01T22:05:34.775Z,4.30
2019-05-01T22:08:34.399Z,4.07
2019-05-01T22:11:12.738Z,5.00
2019-05-01T22:16:47.046Z,5.13
2019-05-01T22:19:28.045Z,4.83
2019-05-01T22:22:38.851Z,4.70
2019-05-01T22:29:19.643Z,5.40
2019-05-01T22:32:15.955Z,4.27
2019-05-01T22:38:29.537Z,4.47
2019-05-01T22:41:16.309Z,5.53
2019-05-01T22:43:56.725Z,5.47
2019-05-01T22:47:20.517Z,5.00
2019-05-01T22:50:32.967Z,4.80
2019-05-01T22:56:44.016Z,5.03
2019-05-01T22:59:36.832Z,4.90
2019-05-01T23:02:59.948Z,4.80
2019-05-01T23:05:44.859Z,4.87
2019-05-01T23:08:39.807Z,5.47
2019-05-01T23:11:29.758Z,4.40
2019-05-01T23:17:34.857Z,4.40
2019-05-01T23:20:49.871Z,4.67
2019-05-01T23:30:57.004Z,4.80
2019-05-01T23:33:51.910Z,5.73
2019-05-01T23:37:00.514Z,5.77
2019-05-01T23:40:10.985Z,5.77
2019-05-01T23:42:55.704Z,5.23
2019-05-01T23:45:58.628Z,6.13
2019-05-01T23:48:48.680Z,5.83
2019-05-01T23:51:28.512Z,5.07
2019-05-01T23:54:07.407Z,6.27
2019-05-01T23:57:14.906Z,5.83
